North Bend, WA

4:40 AM PDT on September 19, 2014 (GMT -0700)
MesoWest SKOOKUM CREEK WA US SNOTEL | Change Station
CLOSE
Current Station
Personal Weather Station
Location: Baring, WA
Elevation: 3919 ft
Nearby Weather Stations

Elev 3919 ft 47.68 °N, 121.61 °W | Updated 6 hours ago

Rain
Rain
63 °F
Feels Like 63 °F
N
3
Wind Variable Wind from SE
Gusts 6 mph

Today
High -- | Low -- °F
--% Chance of Precip.
Yesterday
High -- | Low -- °F
Precip. -- in
6:49 AM 7:10 PM
Waning Crescent, 20% visible
Pressure 30.01 in
Visibility 4.0 miles
Clouds Mostly Cloudy 500 ft
Mostly Cloudy 1000 ft
Overcast 1500 ft
Dew Point 54 °F
Humidity 75%
Rainfall 0.02 in
Snow Depth 0 in , 0 in , 0 in
UV 0 out of 12
Pollen 1.10 out of 12
PM2.5 Good
Flu Activity Not available.
METAR KPAE 191053Z 00000KT 4SM -RA BR BKN005 BKN010 OVC015 15/14 A3001 RMK AO2 RAE40B48 SLP162 P0003 T01500144

More Conditions Fewer Conditions

Pressure 30.01 in
Visibility 4.0 miles
Clouds Mostly Cloudy 500 ft
Mostly Cloudy 1000 ft
Overcast 1500 ft
Dew Point 54 °F
Humidity 75%
Rainfall 0.02 in
Snow Depth 0 in , 0 in , 0 in
UV 0 out of 12
Pollen 1.10 out of 12
PM2.5 Good
Flu Activity Not available.
METAR KPAE 191053Z 00000KT 4SM -RA BR BKN005 BKN010 OVC015 15/14 A3001 RMK AO2 RAE40B48 SLP162 P0003 T01500144

More Conditions Fewer Conditions

10-Day Weather Forecast

Almanac

Astronomy

Sep. 19, 2014 Rise Set
Actual Time 6:49 AM PDT 7:10 PM PDT
Civil Twilight 6:18 AM PDT 7:40 PM PDT
Nautical Twilight 5:41 AM PDT 8:17 PM PDT
Astronomical Twilight 5:03 AM PDT 8:55 PM PDT
Moon 2:24 AM PDT 4:54 PM PDT
Length of Visible Light 13h 22m
Length of Day
12h 20m
Tomorrow will be 3m 25s shorter.
Waning Crescent, 20% of the Moon is Illuminated
Today
Waning Crescent
Sep 24
New
Oct 1
First Quarter
Oct 8
Full
Oct 15
Last Quarter

Today's Extremes

State Highs State Lows

Community

WunderPhotos

Upload Photos

1,754,597 photos uploaded!

WunderBlogs® & News

Nearby

Air Quality

  Air Quality AQ Index Pollutant
Yesterday Good
PM2.5
Yesterday Good
OZONE
Current Good
PM2.5
Friday Good
PM2.5
Friday Good
OZONE
Saturday Good
PM2.5
Saturday Good
OZONE
Sunday Good
PM2.5
Sunday Good
OZONE
Monday Good
OZONE
Monday Good
PM2.5
Tuesday Good
OZONE
Tuesday Good
PM2.5

Snow Depth

Station Depth Elevation
Park Creek Ridge 0 in 4600 ft
Stevens Pass 0 in 4070 ft
Spirit Lake 0 in 3120 ft
Sasse Ridge 0 in 4200 ft
Pigtail Peak 0 in 5900 ft

Earthquake Activity

City Distance Mag. Time & Date
Seabeck, Washington 65 miles 4.0 3:06 AM PDT
2014-09-17
Morton, Washington 100 miles 3.0 5:43 AM PDT
2014-09-16
Minimum magnitude displayed is 2.5.

Coastal Water Temperatures

Place Temperature
No Stations Reporting

Nearby Weather Stations